Santa Fe, NM

17:57 MDT le 21 août 2014 (GMT -0600)
Casa Solana | Change Station
CLOSE
Current Station
Stations météorologiques personnelles
Location: Santa Fe, NM
Altitude: 6930 ft
Stations météo à proximité

Alt. 6930 ft 35.69 °N, 105.96 °W | Updated 2 minutes ago

Clear
Ciel dégagé
80.8 ° F
Paraît 79 ° F
N
2.0
Vent Variable Vent de Sud
Gusts 4.0 mph

Aujourd'hui
Haut(e) -- | Bas -- ° F
--% Risque de précip.
Hier
Haut(e) -- | Bas -- ° F
Precip. -- pouce
6:27 AM 7:45 PM
Lune descendante, 11% visible
Pression 29.83 pouce
Visibilité 10.0 Miles terrestres
Nuages Ciel dégagé
indice de chaleur 79 ° F
Point de rosée 37 ° F
Humidité 21%
Précipitations 0.00 pouce
Profondeur de la couche neigeuse Non disponible.
UV 4 sur 12
Pollen 7.60 sur 12
Qualité de l'air Non disponible.
Flu Activity Non disponible.
METAR KSAF 212253Z 25013KT 10SM CLR 29/01 A3015 RMK AO2 SLP102 T02940006

More Conditions Fewer Conditions

Pression 29.83 pouce
Visibilité 10.0 Miles terrestres
Nuages Ciel dégagé
indice de chaleur 79 ° F
Point de rosée 37 ° F
Humidité 21%
Précipitations 0.00 pouce
Profondeur de la couche neigeuse Non disponible.
UV 4 sur 12
Pollen 7.60 sur 12
Qualité de l'air Non disponible.
Flu Activity Non disponible.
METAR KSAF 212253Z 25013KT 10SM CLR 29/01 A3015 RMK AO2 SLP102 T02940006

More Conditions Fewer Conditions

10-Day Weather Forecast

Almanac

Astronomie

Aug. 21, 2014 Lever Coucher
Temps réel 06:27 MDT 19:45 MDT
Crépuscule civil 06:00 MDT 20:12 MDT
Crépuscule nautique 05:28 MDT 20:44 MDT
Crépuscule astronomique 04:55 MDT 21:17 MDT
Lune 03:03 MDT 17:13 MDT
Durée de lumière visible 14h 11m
Longueur du jour
13h 18m
Tomorrow will be 2m 2s shorter.
Lune descendante, 11% of the Moon is Illuminated
Aujourd'hui
Lune descendante
août 25
Nouveau
Sep 2
Premier quartier
Sep 8
Pleine lune
Sep 15
Dernier quartier

Extrêmes aujourd'hui

State Highs State Lows

Community

WunderPhotos

Upload Photos

1,746,055 Photos téléchargées !

Nearby

Épaisseur de neige

Station Depth Altitude
Quemazon 0 in 9500 ft
North Costilla 0 in 10600 ft
Sierra Blanca 0 in 10280 ft
Silver Creek Divide 19 in 9000 ft

Activité sismique

Ville Distance Mag. Time & Date
No recent earthquake activity has been reported nearby.
Minimum magnitude displayed is 2.5.

Températures des eaux côtières

Lieu Température
Aucun rapport de station

Stations météo à proximité